Time;durP1;ratioP1;P1;durP2;ratioP2;P2;SDS_P1;SDS_P2;PMS_P1;PMS_P2;Temp;Humidity;BMP_temperature;BMP_pressure;BME280_temperature;BME280_humidity;BME280_pressure;Samples;Min_cycle;Max_cycle;Signal;HPM_P1;HPM_P2
2022/01/01 00:00:34;;;;;;;11.05;7.57;;;;;;;17.77;58.92;100230.31;4960489;29;20027;-77
2022/01/01 00:03:00;;;;;;;11.25;7.57;;;;;;;17.76;59.27;100228.59;4960063;29;20387;-78
2022/01/01 00:05:26;;;;;;;9.68;7.72;;;;;;;17.73;59.08;100219.03;4943138;29;20069;-77
2022/01/01 00:07:52;;;;;;;9.55;7.13;;;;;;;17.75;58.93;100221.59;4961222;29;20088;-77
2022/01/01 00:10:19;;;;;;;9.25;7.13;;;;;;;17.73;58.98;100223.44;4960374;29;20031;-77
2022/01/01 00:12:46;;;;;;;12.68;7.55;;;;;;;17.75;59.20;100227.75;4968780;29;20043;-79
2022/01/01 00:15:13;;;;;;;9.43;6.82;;;;;;;17.75;59.20;100221.59;4963326;28;20110;-77
2022/01/01 00:17:38;;;;;;;10.32;7.07;;;;;;;17.77;59.12;100230.31;4942425;29;20039;-77
2022/01/01 00:20:05;;;;;;;12.18;7.15;;;;;;;17.77;59.18;100227.69;4959974;29;20042;-77
2022/01/01 00:22:30;;;;;;;9.98;6.68;;;;;;;17.76;59.50;100218.03;4943127;29;20038;-77
2022/01/01 00:24:56;;;;;;;10.38;7.32;;;;;;;17.79;59.20;100223.22;4960141;28;20077;-77
2022/01/01 00:27:21;;;;;;;9.20;6.95;;;;;;;17.76;59.31;100218.03;4959243;29;20366;-78
2022/01/01 00:29:47;;;;;;;9.15;6.53;;;;;;;17.80;59.34;100224.94;4959400;29;20031;-78
2022/01/01 00:32:12;;;;;;;11.48;7.00;;;;;;;17.80;59.17;100214.38;4945382;29;20038;-78
2022/01/01 00:34:38;;;;;;;11.60;7.30;;;;;;;17.78;59.46;100210.94;4958794;28;20031;-77
2022/01/01 00:37:04;;;;;;;10.68;7.43;;;;;;;17.79;59.33;100213.53;4978763;28;20058;-78
2022/01/01 00:39:30;;;;;;;12.75;7.10;;;;;;;17.79;59.55;100220.56;4979215;28;20022;-77
2022/01/01 00:41:56;;;;;;;11.07;7.10;;;;;;;17.81;59.57;100213.44;4970266;28;20088;-77
2022/01/01 00:44:21;;;;;;;11.23;6.85;;;;;;;17.82;59.45;100218.69;4941756;28;20081;-78
2022/01/01 00:46:47;;;;;;;10.27;7.18;;;;;;;17.81;59.32;100214.31;4958790;28;20344;-77
2022/01/01 00:49:12;;;;;;;9.23;6.80;;;;;;;17.81;59.38;100216.09;4958986;29;20034;-77
2022/01/01 00:51:38;;;;;;;11.40;6.75;;;;;;;17.82;59.16;100228.41;4959147;29;20442;-77
2022/01/01 00:54:03;;;;;;;10.38;6.95;;;;;;;17.82;59.44;100216.03;4958915;29;20474;-77
2022/01/01 00:56:29;;;;;;;11.02;7.13;;;;;;;17.82;59.42;100217.84;4959495;29;20020;-77
2022/01/01 00:58:54;;;;;;;11.13;7.32;;;;;;;17.85;59.29;100212.44;4959326;28;20114;-77
2022/01/01 01:01:20;;;;;;;11.48;7.57;;;;;;;17.85;59.48;100215.06;4959606;29;20046;-78
2022/01/01 01:03:46;;;;;;;11.93;6.93;;;;;;;17.83;59.51;100216.91;4958763;29;20106;-77
2022/01/01 01:06:13;;;;;;;13.32;6.70;;;;;;;17.84;59.30;100214.19;4959219;28;20027;-77
2022/01/01 01:08:40;;;;;;;10.35;6.90;;;;;;;17.86;59.26;100224.72;4974337;28;20023;-78
2022/01/01 01:11:08;;;;;;;9.93;6.57;;;;;;;17.83;59.19;100225.66;4958780;29;20034;-77
2022/01/01 01:13:35;;;;;;;9.27;6.43;;;;;;;17.85;59.18;100215.06;4941438;29;20019;-78
2022/01/01 01:16:00;;;;;;;13.38;7.60;;;;;;;17.83;59.22;100211.63;4958858;28;20035;-77
2022/01/01 01:18:26;;;;;;;12.70;6.95;;;;;;;17.87;59.33;100215.03;4960305;29;20035;-77
2022/01/01 01:20:52;;;;;;;10.30;6.85;;;;;;;17.85;59.05;100217.72;4959356;29;20027;-77
2022/01/01 01:23:18;;;;;;;13.05;6.88;;;;;;;17.87;58.99;100215.88;4958726;28;20378;-77
2022/01/01 01:25:44;;;;;;;10.60;6.97;;;;;;;17.84;59.28;100216.00;4963021;28;20030;-77
2022/01/01 01:28:10;;;;;;;13.02;7.28;;;;;;;17.86;59.04;100219.44;4941908;29;20032;-78
2022/01/01 01:30:38;;;;;;;10.13;6.70;;;;;;;17.84;59.06;100211.56;4958938;29;20027;-78
2022/01/01 01:33:05;;;;;;;10.40;6.38;;;;;;;17.84;58.86;100206.28;4959166;29;20027;-77
2022/01/01 01:35:31;;;;;;;10.95;7.20;;;;;;;17.84;58.98;100205.44;4942203;29;20058;-78
2022/01/01 01:37:57;;;;;;;9.77;7.55;;;;;;;17.83;58.81;100198.44;4941289;29;20050;-78
2022/01/01 01:40:23;;;;;;;11.88;7.75;;;;;;;17.84;58.81;100200.16;4941194;29;20478;-77
2022/01/01 01:42:49;;;;;;;11.55;8.30;;;;;;;17.82;58.44;100194.06;4958143;29;20030;-78
2022/01/01 01:45:17;;;;;;;10.70;7.05;;;;;;;17.81;58.82;100189.69;4958141;28;20480;-77
2022/01/01 01:47:44;;;;;;;10.63;8.30;;;;;;;17.82;58.54;100202.00;4958802;29;20114;-78
2022/01/01 01:50:12;;;;;;;12.30;7.90;;;;;;;17.82;58.85;100202.84;4941848;29;20363;-78
2022/01/01 01:52:40;;;;;;;10.55;7.70;;;;;;;17.83;58.72;100198.44;4958440;28;20030;-77
2022/01/01 01:55:08;;;;;;;9.80;7.85;;;;;;;17.82;58.72;100202.00;4958993;28;20165;-77
2022/01/01 01:57:36;;;;;;;11.40;7.55;;;;;;;17.81;58.63;100205.53;4957988;29;20023;-77
2022/01/01 02:00:06;;;;;;;10.32;6.85;;;;;;;17.80;58.80;100204.69;4943805;29;20415;-78
2022/01/01 02:02:32;;;;;;;9.40;7.15;;;;;;;17.80;58.55;100209.09;4953873;29;20141;-78
2022/01/01 02:04:58;;;;;;;10.30;7.22;;;;;;;17.81;58.79;100210.81;4959911;28;20035;-78
2022/01/01 02:07:24;;;;;;;10.10;7.43;;;;;;;17.82;58.57;100207.28;4957361;29;20358;-78
2022/01/01 02:09:50;;;;;;;9.13;6.55;;;;;;;17.80;58.49;100203.81;4957231;29;20455;-77
2022/01/01 02:12:15;;;;;;;10.38;8.00;;;;;;;17.78;58.56;100210.94;4957498;29;20044;-77
2022/01/01 02:17:14;;;;;;;12.27;7.60;;;;;;;17.79;58.42;100204.72;4957548;29;20027;-77
2022/01/01 02:19:44;;;;;;;11.93;7.10;;;;;;;17.77;58.80;100212.69;4958007;29;20115;-78
2022/01/01 02:22:11;;;;;;;11.00;7.95;;;;;;;17.77;58.73;100209.22;4958019;29;20038;-77
2022/01/01 02:24:36;;;;;;;10.32;7.07;;;;;;;17.78;58.58;100205.66;4940752;29;20390;-77
2022/01/01 02:27:02;;;;;;;10.23;7.35;;;;;;;17.74;58.59;100219.88;4958549;29;20030;-77
2022/01/01 02:29:28;;;;;;;9.40;6.75;;;;;;;17.76;58.59;100218.03;4957708;29;20110;-77
2022/01/01 02:31:54;;;;;;;10.38;7.07;;;;;;;17.75;58.49;100221.59;4957669;29;20110;-78
2022/01/01 02:34:20;;;;;;;9.73;7.10;;;;;;;17.75;58.49;100226.88;4957683;28;20023;-77
2022/01/01 02:36:46;;;;;;;10.27;7.22;;;;;;;17.75;58.49;100226.88;4941034;29;20058;-77
2022/01/01 02:39:19;;;;;;;9.65;6.95;;;;;;;17.76;58.70;100218.91;4957786;29;20426;-78
2022/01/01 02:41:48;;;;;;;8.68;6.32;;;;;;;17.78;58.55;100216.22;4957760;29;20031;-77
2022/01/01 02:44:15;;;;;;;11.55;6.85;;;;;;;17.77;58.45;100210.06;4957956;28;20050;-78
2022/01/01 02:46:40;;;;;;;9.55;6.93;;;;;;;17.76;58.45;100210.97;4957626;29;20028;-78
2022/01/01 02:49:06;;;;;;;11.73;6.90;;;;;;;17.74;58.63;100204.91;4957979;29;20031;-78
2022/01/01 02:51:32;;;;;;;9.40;6.90;;;;;;;17.73;58.26;100212.88;4957930;29;20024;-78
2022/01/01 02:53:58;;;;;;;9.15;6.82;;;;;;;17.73;58.29;100212.88;4957794;29;20038;-77
2022/01/01 02:56:24;;;;;;;9.43;6.47;;;;;;;17.74;58.16;100201.38;4967283;28;20023;-78
2022/01/01 02:58:50;;;;;;;10.13;6.95;;;;;;;17.75;58.18;100205.75;4962086;29;20034;-77
2022/01/01 03:01:16;;;;;;;10.48;7.53;;;;;;;17.70;58.22;100209.44;4940505;29;20054;-78
2022/01/01 03:03:42;;;;;;;8.98;7.00;;;;;;;17.73;58.19;100212.88;4940879;29;20035;-78
2022/01/01 03:06:08;;;;;;;11.32;7.75;;;;;;;17.73;57.98;100218.16;4956802;28;20101;-78
2022/01/01 03:08:34;;;;;;;13.15;7.43;;;;;;;17.72;58.03;100201.44;4957630;29;20351;-78
2022/01/01 03:11:02;;;;;;;11.98;7.35;;;;;;;17.70;57.99;100206.78;4940229;29;20027;-78
2022/01/01 03:13:31;;;;;;;9.68;7.30;;;;;;;17.68;57.92;100199.84;4939867;29;20469;-78
2022/01/01 03:15:57;;;;;;;9.98;7.05;;;;;;;17.69;58.39;100210.31;4939779;29;20031;-78
2022/01/01 03:18:23;;;;;;;8.85;6.85;;;;;;;17.71;58.37;100203.22;4956787;29;20026;-77
2022/01/01 03:20:49;;;;;;;9.30;6.70;;;;;;;17.71;58.23;100208.50;4957703;29;20093;-78
2022/01/01 03:23:14;;;;;;;8.50;6.63;;;;;;;17.70;58.34;100209.44;4957445;29;20027;-78
2022/01/01 03:25:40;;;;;;;11.20;6.28;;;;;;;17.73;58.48;100197.03;4956606;28;20031;-78
2022/01/01 03:28:05;;;;;;;10.65;6.78;;;;;;;17.73;58.46;100199.66;4958051;29;20036;-78
2022/01/01 03:30:32;;;;;;;9.57;7.05;;;;;;;17.74;58.28;100193.47;4956987;29;20038;-77
2022/01/01 03:32:57;;;;;;;9.90;6.55;;;;;;;17.75;58.44;100197.81;4957204;29;20038;-78
2022/01/01 03:35:23;;;;;;;8.85;6.53;;;;;;;17.75;58.54;100196.06;4957069;28;20031;-78
2022/01/01 03:37:48;;;;;;;11.35;7.38;;;;;;;17.76;58.46;100199.53;4940108;29;20050;-78
2022/01/01 03:40:14;;;;;;;10.55;7.72;;;;;;;17.77;58.34;100203.94;4956988;29;20354;-78
2022/01/01 03:42:40;;;;;;;8.35;6.78;;;;;;;17.77;58.58;100201.28;4957567;29;20086;-78
2022/01/01 03:45:07;;;;;;;8.82;6.47;;;;;;;17.77;58.34;100193.38;4957382;28;20042;-77
2022/01/01 03:47:33;;;;;;;8.80;6.30;;;;;;;17.77;58.24;100198.66;4959024;29;20051;-77
2022/01/01 03:49:59;;;;;;;9.65;6.65;;;;;;;17.74;58.60;100186.41;4943504;29;20023;-77
2022/01/01 03:52:25;;;;;;;9.57;6.22;;;;;;;17.76;58.28;100183.72;4965010;29;20344;-77
2022/01/01 03:54:51;;;;;;;9.07;6.63;;;;;;;17.75;58.44;100190.78;4956852;28;20027;-77
2022/01/01 03:57:16;;;;;;;10.68;7.18;;;;;;;17.76;58.56;100181.06;4956799;29;20031;-78
2022/01/01 03:59:42;;;;;;;9.05;6.45;;;;;;;17.76;58.15;100186.34;4940154;29;20113;-77
2022/01/01 04:02:07;;;;;;;9.27;6.22;;;;;;;17.76;58.25;100178.44;4956804;29;20031;-77
2022/01/01 04:04:33;;;;;;;10.52;6.63;;;;;;;17.76;58.30;100176.66;4940362;29;20023;-77
2022/01/01 04:07:00;;;;;;;8.98;6.72;;;;;;;17.77;58.27;100174.91;4956629;29;20451;-78
2022/01/01 04:09:25;;;;;;;8.80;6.78;;;;;;;17.76;57.92;100171.38;4956868;29;20023;-78
2022/01/01 04:11:51;;;;;;;8.85;6.18;;;;;;;17.77;58.23;100167.81;4956764;29;20067;-77
2022/01/01 04:14:17;;;;;;;8.77;5.97;;;;;;;17.79;57.93;100175.69;4939646;28;20023;-78
2022/01/01 04:16:44;;;;;;;9.85;6.57;;;;;;;17.79;58.06;100180.97;4958512;28;20027;-77
2022/01/01 04:19:10;;;;;;;8.57;6.35;;;;;;;17.76;57.96;100181.94;4960687;29;20027;-78
2022/01/01 04:21:35;;;;;;;8.38;5.68;;;;;;;17.78;58.19;100176.63;4943322;29;20470;-77
2022/01/01 04:24:02;;;;;;;8.77;6.00;;;;;;;17.78;57.91;100166.06;4960052;29;20466;-77
2022/01/01 04:26:28;;;;;;;7.95;6.00;;;;;;;17.75;57.96;100169.66;4960099;29;20035;-77
2022/01/01 04:28:53;;;;;;;8.20;6.30;;;;;;;17.78;57.77;100168.69;4960459;29;20028;-77
2022/01/01 04:31:19;;;;;;;8.57;5.95;;;;;;;17.73;57.20;100170.63;4943019;29;20126;-78
2022/01/01 04:33:45;;;;;;;8.70;5.85;;;;;;;17.77;57.45;100166.97;4960470;29;20082;-77
2022/01/01 04:36:11;;;;;;;8.90;6.00;;;;;;;17.75;57.32;100169.66;4960162;28;20031;-78
2022/01/01 04:38:39;;;;;;;9.23;5.55;;;;;;;17.75;57.36;100174.94;4960382;29;20090;-77
2022/01/01 04:41:13;;;;;;;7.35;5.30;;;;;;;17.73;57.70;100168.88;4960159;29;20027;-77
2022/01/01 04:43:40;;;;;;;7.78;5.43;;;;;;;17.75;57.87;100168.78;4951372;29;20031;-78
2022/01/01 04:46:06;;;;;;;8.68;5.53;;;;;;;17.74;57.80;100178.50;4964716;28;20066;-77
2022/01/01 04:48:32;;;;;;;7.18;5.40;;;;;;;17.76;57.61;100186.34;4959309;29;20055;-78
2022/01/01 04:50:57;;;;;;;7.57;5.53;;;;;;;17.74;57.55;100193.47;4942540;29;20051;-77
2022/01/01 04:53:23;;;;;;;8.18;5.28;;;;;;;17.74;57.49;100198.75;4959846;29;20034;-78
2022/01/01 04:55:49;;;;;;;6.85;5.07;;;;;;;17.71;57.29;100197.06;4959521;28;20027;-77
2022/01/01 04:58:16;;;;;;;8.52;5.32;;;;;;;17.71;57.71;100197.06;4943225;29;20062;-77
2022/01/01 05:00:42;;;;;;;7.45;5.40;;;;;;;17.70;57.15;100198.88;4942285;29;20023;-77
2022/01/01 05:03:07;;;;;;;7.95;5.45;;;;;;;17.72;57.42;100198.78;4942320;29;20066;-78
2022/01/01 05:05:33;;;;;;;6.82;5.05;;;;;;;17.70;57.72;100204.16;4959139;28;20047;-78
2022/01/01 05:07:58;;;;;;;7.65;4.95;;;;;;;17.69;57.20;100202.41;4959393;29;20038;-77
2022/01/01 05:10:24;;;;;;;8.73;5.63;;;;;;;17.70;57.38;100200.63;4959930;29;20038;-78
2022/01/01 05:12:53;;;;;;;7.40;5.03;;;;;;;17.69;57.41;100198.91;4942516;29;20035;-78
2022/01/01 05:15:19;;;;;;;8.57;5.32;;;;;;;17.70;57.36;100196.22;4959957;28;20484;-77
2022/01/01 05:17:44;;;;;;;7.22;4.93;;;;;;;17.70;57.63;100198.00;4959851;29;20068;-78
2022/01/01 05:20:11;;;;;;;7.75;5.32;;;;;;;17.65;57.39;100206.09;4959113;29;20551;-77
2022/01/01 05:22:36;;;;;;;7.35;5.20;;;;;;;17.67;57.37;100204.25;4959014;29;20102;-78
2022/01/01 05:25:02;;;;;;;7.63;4.60;;;;;;;17.69;57.78;100206.84;4959181;28;20062;-77
2022/01/01 05:27:30;;;;;;;7.00;4.72;;;;;;;17.70;57.66;100204.16;4958670;28;20443;-78
2022/01/01 05:29:55;;;;;;;7.18;4.75;;;;;;;17.65;57.49;100206.09;4942511;29;20054;-77
2022/01/01 05:32:21;;;;;;;6.85;5.00;;;;;;;17.67;57.75;100204.25;4959769;29;20343;-78
2022/01/01 05:34:46;;;;;;;6.95;4.18;;;;;;;17.67;57.50;100203.41;4959116;28;20082;-78
2022/01/01 05:37:12;;;;;;;6.68;4.47;;;;;;;17.66;57.40;100196.38;4950282;29;20055;-78
2022/01/01 05:39:38;;;;;;;6.45;4.40;;;;;;;17.63;57.33;100197.34;4947901;29;20042;-78
2022/01/01 05:42:03;;;;;;;6.57;4.22;;;;;;;17.66;57.19;100202.53;4958809;29;20027;-78
2022/01/01 05:44:29;;;;;;;6.63;4.70;;;;;;;17.67;56.95;100203.41;4958858;28;20358;-78
2022/01/01 05:46:55;;;;;;;7.43;4.82;;;;;;;17.65;57.18;100195.53;4941849;29;20031;-77
2022/01/01 05:49:21;;;;;;;6.80;4.25;;;;;;;17.63;57.04;100202.63;4959072;29;20126;-77
2022/01/01 05:51:46;;;;;;;7.30;4.70;;;;;;;17.63;56.79;100197.34;4958788;29;20027;-77
2022/01/01 05:54:12;;;;;;;7.28;4.65;;;;;;;17.63;57.04;100192.06;4958429;28;20029;-77
2022/01/01 05:56:38;;;;;;;7.22;4.90;;;;;;;17.63;56.91;100194.69;4958296;29;20027;-77
2022/01/01 05:59:03;;;;;;;7.00;4.55;;;;;;;17.61;56.94;100193.03;4958060;29;20015;-78
2022/01/01 06:01:29;;;;;;;7.43;5.03;;;;;;;17.58;56.90;100194.03;4957867;29;20030;-78
2022/01/01 06:03:54;;;;;;;8.55;5.03;;;;;;;17.59;56.97;100195.75;4941501;29;20034;-78
2022/01/01 06:06:20;;;;;;;6.80;4.78;;;;;;;17.57;56.75;100190.50;4958267;28;20462;-77
2022/01/01 06:08:45;;;;;;;6.75;4.78;;;;;;;17.56;56.95;100204.63;4941789;29;20091;-77
2022/01/01 06:11:11;;;;;;;5.47;4.07;;;;;;;17.58;56.88;100215.16;4958666;29;20358;-77
2022/01/01 06:13:36;;;;;;;6.22;4.53;;;;;;;17.56;56.77;100223.09;4958213;29;20039;-78
2022/01/01 06:16:03;;;;;;;6.30;4.18;;;;;;;17.55;56.91;100231.06;4958012;28;20411;-78
2022/01/01 06:18:28;;;;;;;6.40;4.00;;;;;;;17.57;57.03;100230.09;4941255;29;20023;-78
2022/01/01 06:20:54;;;;;;;6.22;4.25;;;;;;;17.56;56.77;100238.06;4958357;29;20161;-78
2022/01/01 06:23:20;;;;;;;6.25;4.43;;;;;;;17.60;56.92;100238.81;4958569;29;20086;-78
2022/01/01 06:25:45;;;;;;;6.68;4.28;;;;;;;17.56;56.90;100230.16;4959251;28;20038;-77
2022/01/01 06:28:11;;;;;;;5.50;3.90;;;;;;;17.56;57.06;100248.63;4958660;29;20467;-77
2022/01/01 06:30:38;;;;;;;6.40;4.05;;;;;;;17.54;56.84;100245.19;4967313;29;20047;-78
2022/01/01 06:33:11;;;;;;;5.70;3.95;;;;;;;17.56;57.13;100251.25;4950088;29;20496;-77
2022/01/01 06:35:41;;;;;;;6.57;4.07;;;;;;;17.58;57.36;100252.94;4957453;28;20023;-77
2022/01/01 06:38:07;;;;;;;6.32;4.20;;;;;;;17.60;57.19;100252.88;4957000;29;20050;-78
2022/01/01 06:40:33;;;;;;;5.55;3.60;;;;;;;17.60;57.10;100260.81;4957243;28;20085;-78
2022/01/01 06:42:59;;;;;;;5.70;3.90;;;;;;;17.61;57.30;100272.22;4957594;29;20121;-77
2022/01/01 06:45:24;;;;;;;5.63;3.63;;;;;;;17.61;57.29;100273.09;4957441;28;20059;-78
2022/01/01 06:47:50;;;;;;;5.55;3.67;;;;;;;17.61;57.20;100259.88;4958171;29;20366;-78
2022/01/01 06:50:16;;;;;;;7.18;3.70;;;;;;;17.63;57.32;100273.03;4957310;29;20027;-78
2022/01/01 06:52:44;;;;;;;5.55;3.72;;;;;;;17.63;57.25;100279.16;4940382;29;20027;-78
2022/01/01 06:55:11;;;;;;;6.05;3.60;;;;;;;17.64;57.20;100287.94;4940389;29;20031;-78
2022/01/01 06:57:37;;;;;;;5.65;3.38;;;;;;;17.64;57.13;100288.81;4957332;29;20063;-78
2022/01/01 07:00:04;;;;;;;6.03;3.83;;;;;;;17.64;57.24;100294.09;4940699;29;20023;-77
2022/01/01 07:02:29;;;;;;;5.90;3.78;;;;;;;17.64;57.04;100294.09;4957531;29;20027;-77
2022/01/01 07:04:55;;;;;;;6.13;3.88;;;;;;;17.63;57.35;100292.34;4941033;29;20504;-78
2022/01/01 07:07:20;;;;;;;5.95;3.58;;;;;;;17.62;57.15;100295.91;4956975;29;20518;-78
2022/01/01 07:09:46;;;;;;;6.03;3.72;;;;;;;17.63;57.15;100289.72;4956599;29;20140;-77
2022/01/01 07:12:11;;;;;;;5.80;3.70;;;;;;;17.65;56.99;100293.19;4940402;29;20110;-78
2022/01/01 07:14:37;;;;;;;4.95;3.25;;;;;;;17.63;57.18;100297.63;4957682;29;20094;-78
2022/01/01 07:17:03;;;;;;;5.22;3.50;;;;;;;17.63;57.01;100296.78;4957762;29;20065;-77
2022/01/01 07:19:29;;;;;;;5.18;3.42;;;;;;;17.64;57.00;100302.03;4941220;29;20031;-78
2022/01/01 07:21:59;;;;;;;5.63;3.50;;;;;;;17.64;57.04;100304.66;4941652;29;20039;-77
2022/01/01 07:24:26;;;;;;;5.22;3.55;;;;;;;17.65;56.87;100311.66;4964302;29;20058;-77
2022/01/01 07:26:51;;;;;;;5.95;3.53;;;;;;;17.60;56.85;100303.03;4963071;29;20108;-78
2022/01/01 07:29:17;;;;;;;4.93;3.28;;;;;;;17.62;56.50;100314.38;4956948;29;20121;-77
2022/01/01 07:31:42;;;;;;;5.05;3.30;;;;;;;17.63;56.82;100318.75;4956895;28;20043;-77
2022/01/01 07:34:08;;;;;;;4.80;3.60;;;;;;;17.58;56.61;100311.00;4940210;29;20042;-78
2022/01/01 07:36:33;;;;;;;5.60;3.53;;;;;;;17.57;56.56;100321.59;4939918;29;20115;-77
2022/01/01 07:38:59;;;;;;;6.50;4.32;;;;;;;17.58;56.34;100320.69;4957633;29;20106;-78
2022/01/01 07:41:24;;;;;;;5.60;3.45;;;;;;;17.55;56.78;100311.09;4957236;28;20050;-77
2022/01/01 07:43:50;;;;;;;5.80;3.75;;;;;;;17.56;56.83;100307.56;4957169;29;20458;-77
2022/01/01 07:46:15;;;;;;;5.55;3.60;;;;;;;17.54;56.59;100316.44;4957086;28;20510;-77
2022/01/01 07:48:41;;;;;;;5.00;3.60;;;;;;;17.55;56.39;100315.50;4939422;29;20472;-77
2022/01/01 07:51:07;;;;;;;4.97;3.40;;;;;;;17.56;56.40;100325.16;4957325;28;20035;-78
2022/01/01 07:53:32;;;;;;;5.60;3.78;;;;;;;17.56;56.52;100327.78;4960732;29;20094;-78
2022/01/01 07:55:58;;;;;;;5.53;3.58;;;;;;;17.54;56.43;100324.34;4960844;29;20058;-78
2022/01/01 07:58:23;;;;;;;5.38;3.35;;;;;;;17.54;56.35;100330.47;4961307;29;20027;-78
2022/01/01 08:00:49;;;;;;;5.63;3.50;;;;;;;17.55;56.37;100331.34;4961490;29;20042;-78
2022/01/01 08:03:17;;;;;;;4.97;3.30;;;;;;;17.52;56.41;100327.03;4960705;28;20089;-77
2022/01/01 08:05:43;;;;;;;5.40;3.47;;;;;;;17.56;56.81;100327.78;4960468;29;20051;-77
2022/01/01 08:08:08;;;;;;;6.47;3.67;;;;;;;17.54;56.67;100329.63;4960680;28;20410;-78
2022/01/01 08:10:37;;;;;;;6.10;3.83;;;;;;;17.53;56.34;100333.19;4960953;29;20086;-78
2022/01/01 08:13:03;;;;;;;4.88;3.30;;;;;;;17.53;56.70;100333.19;4960454;28;20058;-78
2022/01/01 08:15:29;;;;;;;6.18;3.60;;;;;;;17.55;56.42;100336.63;4960933;29;20526;-77
2022/01/01 08:17:55;;;;;;;5.55;3.30;;;;;;;17.54;56.20;100334.91;4970491;28;20047;-78
2022/01/01 08:20:22;;;;;;;5.75;4.18;;;;;;;17.56;56.61;100346.25;4966947;29;20055;-77
2022/01/01 08:22:47;;;;;;;4.75;3.38;;;;;;;17.54;56.47;100345.47;4942616;29;20026;-78
2022/01/01 08:25:14;;;;;;;5.85;3.70;;;;;;;17.57;56.37;100345.34;4959659;29;20094;-77
2022/01/01 08:27:39;;;;;;;5.72;3.30;;;;;;;17.56;56.68;100351.53;4959749;28;20485;-77
2022/01/01 08:30:06;;;;;;;4.82;3.25;;;;;;;17.57;56.42;100353.25;4959923;29;20023;-78
2022/01/01 08:32:32;;;;;;;6.55;3.90;;;;;;;17.54;56.72;100353.38;4927191;29;20034;-77
2022/01/01 08:34:57;;;;;;;5.20;3.65;;;;;;;17.54;56.38;100356.00;4942914;29;20023;-78
2022/01/01 08:37:23;;;;;;;5.35;3.50;;;;;;;17.54;56.69;100356.84;4960064;29;20053;-78
2022/01/01 08:39:48;;;;;;;8.65;5.80;;;;;;;17.54;56.77;100361.28;4959971;29;20106;-77
2022/01/01 08:42:14;;;;;;;6.78;4.65;;;;;;;17.57;56.29;100363.81;4960470;29;20023;-77
2022/01/01 08:44:39;;;;;;;5.15;3.72;;;;;;;17.55;56.61;100363.00;4960290;28;20031;-78
2022/01/01 08:47:05;;;;;;;5.50;3.75;;;;;;;17.57;56.75;100358.53;4960120;29;20102;-77
2022/01/01 08:49:31;;;;;;;6.07;4.00;;;;;;;17.56;56.77;100367.38;4942741;28;20037;-77
2022/01/01 08:51:56;;;;;;;5.38;4.10;;;;;;;17.56;56.74;100362.97;4959203;28;20340;-77
2022/01/01 08:54:22;;;;;;;6.18;4.20;;;;;;;17.58;56.47;100360.28;4946548;28;20030;-78
2022/01/01 08:56:48;;;;;;;6.70;3.78;;;;;;;17.55;56.74;100363.88;4962636;28;20031;-78
2022/01/01 08:59:14;;;;;;;5.50;4.07;;;;;;;17.61;56.56;100356.66;4959794;29;20560;-78
2022/01/01 09:01:39;;;;;;;5.55;3.90;;;;;;;17.60;56.70;100363.72;4960750;28;20038;-77
2022/01/01 09:04:05;;;;;;;5.45;3.75;;;;;;;17.61;56.76;100368.09;4943777;28;20065;-78
2022/01/01 09:06:32;;;;;;;5.93;4.15;;;;;;;17.62;56.76;100366.31;4960030;29;20056;-77
2022/01/01 09:08:57;;;;;;;5.68;3.85;;;;;;;17.59;56.50;100367.28;4960714;29;20031;-77
2022/01/01 09:11:23;;;;;;;5.57;3.58;;;;;;;17.62;56.55;100364.53;4952826;29;20019;-77
2022/01/01 09:13:49;;;;;;;5.85;3.85;;;;;;;17.62;56.76;100364.53;4963055;29;20344;-78
2022/01/01 09:16:17;;;;;;;6.03;4.03;;;;;;;17.63;56.52;100357.50;4959707;28;20090;-77
2022/01/01 09:18:45;;;;;;;6.05;4.43;;;;;;;17.63;56.80;100360.97;4960270;29;20031;-77
2022/01/01 09:21:12;;;;;;;7.88;4.45;;;;;;;17.65;56.70;100372.38;4943492;29;20038;-78
2022/01/01 09:23:37;;;;;;;5.25;3.60;;;;;;;17.64;56.83;100378.56;4961046;29;20023;-78
2022/01/01 09:26:04;;;;;;;5.57;3.55;;;;;;;17.66;56.98;100382.00;4959205;28;20372;-77
2022/01/01 09:28:31;;;;;;;5.95;4.15;;;;;;;17.63;56.94;100384.72;4959033;29;20023;-77
2022/01/01 09:30:58;;;;;;;5.28;3.50;;;;;;;17.65;56.84;100382.94;4958573;29;20027;-78
2022/01/01 09:33:29;;;;;;;5.63;3.60;;;;;;;17.66;56.78;100373.22;4959103;29;20027;-78
2022/01/01 09:35:55;;;;;;;5.03;3.45;;;;;;;17.66;57.01;100387.28;4959485;28;20466;-77
2022/01/01 09:38:21;;;;;;;6.68;3.88;;;;;;;17.67;56.89;100389.00;4942364;29;20475;-77
2022/01/01 09:40:48;;;;;;;4.90;3.35;;;;;;;17.65;56.77;100385.56;4960083;29;20030;-77
2022/01/01 09:43:14;;;;;;;5.68;3.50;;;;;;;17.67;56.74;100389.00;4960764;29;20033;-78
2022/01/01 09:45:41;;;;;;;5.63;3.50;;;;;;;17.68;56.92;100384.59;4959934;28;20462;-77
2022/01/01 09:48:08;;;;;;;6.22;3.75;;;;;;;17.69;56.72;100381.88;4959081;29;20051;-78
2022/01/01 09:50:35;;;;;;;5.22;3.45;;;;;;;17.71;56.85;100384.50;4959041;29;20060;-77
2022/01/01 09:53:01;;;;;;;6.50;3.67;;;;;;;17.70;56.69;100383.66;4959488;29;20050;-77
2022/01/01 09:55:27;;;;;;;5.43;3.50;;;;;;;17.70;57.01;100386.28;4943683;29;20383;-77
2022/01/01 09:57:52;;;;;;;6.00;4.15;;;;;;;17.70;56.73;100386.28;4944227;29;20086;-78
2022/01/01 10:00:18;;;;;;;5.63;3.85;;;;;;;17.70;57.02;100394.19;4945047;29;20055;-77
2022/01/01 10:02:44;;;;;;;5.53;3.40;;;;;;;17.71;56.75;100390.66;4944558;29;20419;-77
2022/01/01 10:05:09;;;;;;;6.13;3.80;;;;;;;17.70;57.14;100394.19;4947437;29;20443;-77
2022/01/01 10:07:36;;;;;;;4.90;3.50;;;;;;;17.75;57.08;100390.53;4959753;29;20420;-78
2022/01/01 10:10:25;;;;;;;6.50;3.67;;;;;;;17.75;56.89;100385.25;4959032;29;20039;-77
2022/01/01 10:12:51;;;;;;;4.97;3.35;;;;;;;17.75;56.69;100377.31;4959361;29;20027;-78
2022/01/01 10:15:17;;;;;;;6.70;3.60;;;;;;;17.77;56.90;100378.16;4942038;29;20534;-77
2022/01/01 10:17:43;;;;;;;5.70;3.65;;;;;;;17.78;57.01;100379.88;4959453;29;20355;-77
2022/01/01 10:20:10;;;;;;;4.68;3.08;;;;;;;17.73;57.18;100393.25;4959655;29;20054;-77
2022/01/01 10:22:37;;;;;;;5.22;3.10;;;;;;;17.75;56.84;100406.38;4959588;29;20097;-77
2022/01/01 10:27:57;;;;;;;5.10;3.10;;;;;;;17.78;56.92;100406.28;4959002;29;20108;-78
2022/01/01 10:30:32;;;;;;;5.07;3.38;;;;;;;17.78;57.03;100407.13;4957596;29;20119;-78
2022/01/01 10:33:06;;;;;;;4.97;3.25;;;;;;;17.80;56.81;100409.72;4958380;29;20023;-78
2022/01/01 10:35:53;;;;;;;6.80;3.55;;;;;;;17.81;57.21;100412.31;4958293;28;20023;-78
2022/01/01 10:38:26;;;;;;;5.03;3.05;;;;;;;17.78;56.97;100415.03;4958239;29;20050;-78
2022/01/01 10:41:04;;;;;;;5.30;3.17;;;;;;;17.80;57.05;100418.53;4958509;29;20078;-78
2022/01/01 10:43:42;;;;;;;4.93;3.22;;;;;;;17.81;57.43;100416.72;4959040;29;20033;-77
2022/01/01 10:46:16;;;;;;;4.28;3.10;;;;;;;17.84;57.05;100416.63;4959338;28;20091;-77
2022/01/01 10:48:56;;;;;;;5.60;3.55;;;;;;;17.85;57.03;100423.63;4940471;29;20035;-77
2022/01/01 10:51:24;;;;;;;10.93;4.97;;;;;;;17.85;57.33;100421.88;4958833;29;20038;-77
2022/01/01 10:54:05;;;;;;;12.25;6.85;;;;;;;17.84;57.46;100416.63;4959022;29;20023;-78
2022/01/01 10:56:38;;;;;;;11.00;5.75;;;;;;;17.86;57.27;100412.16;4942417;29;20027;-78
2022/01/01 10:59:04;;;;;;;9.00;4.97;;;;;;;17.87;57.17;100400.69;4960622;28;20031;-77
2022/01/01 11:01:33;;;;;;;5.70;3.58;;;;;;;17.87;57.15;100391.91;4956017;28;20081;-78
2022/01/01 11:04:00;;;;;;;5.38;3.38;;;;;;;17.87;57.48;100390.13;4939570;29;20058;-77
2022/01/01 11:06:32;;;;;;;4.65;3.50;;;;;;;17.85;57.46;100400.75;4957343;28;20034;-78
2022/01/01 11:08:58;;;;;;;5.13;3.13;;;;;;;17.85;57.20;100392.84;4956732;29;20023;-78
2022/01/01 11:11:24;;;;;;;5.25;3.33;;;;;;;17.88;57.46;100391.88;4957666;28;20023;-78
2022/01/01 11:13:51;;;;;;;6.57;3.10;;;;;;;17.89;57.22;100388.31;4941132;28;20027;-77
2022/01/01 11:16:19;;;;;;;7.30;3.47;;;;;;;17.88;57.75;100381.31;4958912;29;20106;-78
2022/01/01 11:18:45;;;;;;;5.03;2.78;;;;;;;17.89;57.55;100377.75;4958528;28;20016;-77
2022/01/01 11:21:11;;;;;;;5.68;3.13;;;;;;;17.90;57.42;100379.47;4958703;29;20023;-78
2022/01/01 11:23:40;;;;;;;4.85;3.05;;;;;;;17.91;57.59;100380.34;4959784;28;20026;-77
2022/01/01 11:26:07;;;;;;;5.00;3.03;;;;;;;17.89;57.85;100377.75;4958541;28;20034;-78